createdAt,value
2023-02-12T00:01:51.888Z,100039.30
2023-02-12T00:04:20.815Z,100049.49
2023-02-12T00:06:49.997Z,100051.23
2023-02-12T00:09:18.877Z,100053.20
2023-02-12T00:11:48.584Z,100054.12
2023-02-12T00:14:17.442Z,100055.10
2023-02-12T00:16:51.337Z,100066.23
2023-02-12T00:19:20.143Z,100064.34
2023-02-12T00:21:49.435Z,100065.02
2023-02-12T00:24:18.581Z,100072.16
2023-02-12T00:26:48.906Z,100075.77
2023-02-12T00:29:17.781Z,100083.52
2023-02-12T00:31:46.808Z,100081.44
2023-02-12T00:34:15.694Z,100079.47
2023-02-12T00:36:44.485Z,100089.61
2023-02-12T00:39:13.533Z,100095.04
2023-02-12T00:41:42.845Z,100092.17
2023-02-12T00:44:11.766Z,100097.45
2023-02-12T00:46:40.883Z,100099.84
2023-02-12T00:49:09.985Z,100101.30
2023-02-12T00:51:39.084Z,100104.75
2023-02-12T00:54:10.057Z,100105.70
2023-02-12T00:56:39.585Z,100110.04
2023-02-12T00:59:08.498Z,100114.13
2023-02-12T01:01:41.590Z,100116.61
2023-02-12T01:04:10.837Z,100126.40
2023-02-12T01:06:39.841Z,100124.12
2023-02-12T01:09:09.325Z,100130.70
2023-02-12T01:11:38.301Z,100138.63
2023-02-12T01:14:07.655Z,100137.23
2023-02-12T01:16:38.395Z,100141.66
2023-02-12T01:19:07.432Z,100147.75
2023-02-12T01:21:36.540Z,100150.69
2023-02-12T01:24:06.249Z,100152.84
2023-02-12T01:26:35.248Z,100157.58
2023-02-12T01:29:05.932Z,100163.42
2023-02-12T01:31:38.875Z,100165.85
2023-02-12T01:34:08.266Z,100171.54
2023-02-12T01:36:37.462Z,100179.73
2023-02-12T01:39:06.769Z,100180.92
2023-02-12T01:41:37.631Z,100186.48
2023-02-12T01:44:12.889Z,100191.66
2023-02-12T01:46:44.641Z,100200.96
2023-02-12T01:49:29.726Z,100201.80
2023-02-12T01:52:24.485Z,100209.70
2023-02-12T01:54:56.848Z,100217.42
2023-02-12T01:57:28.320Z,100228.36
2023-02-12T01:59:58.335Z,100232.87
2023-02-12T02:02:27.671Z,100240.50
2023-02-12T02:04:59.314Z,100247.66
2023-02-12T02:07:33.776Z,100251.59
2023-02-12T02:10:03.131Z,100257.81
2023-02-12T02:12:50.938Z,100260.52
2023-02-12T02:15:20.661Z,100265.06
2023-02-12T02:18:04.206Z,100277.58
2023-02-12T02:20:49.216Z,100284.27
2023-02-12T02:23:40.338Z,100304.33
2023-02-12T02:26:37.963Z,100313.58
2023-02-12T02:29:37.995Z,100323.81
2023-02-12T02:32:11.037Z,100329.54
2023-02-12T02:35:07.458Z,100340.26
2023-02-12T02:37:44.174Z,100352.36
2023-02-12T02:40:21.522Z,100364.28
2023-02-12T02:43:19.945Z,100367.97
2023-02-12T02:45:53.896Z,100381.83
2023-02-12T02:48:26.952Z,100388.64
2023-02-12T02:51:21.223Z,100399.60
2023-02-12T02:53:58.125Z,100414.19
2023-02-12T02:56:27.245Z,100426.33
2023-02-12T02:58:58.889Z,100431.84
2023-02-12T03:01:28.706Z,100432.48
2023-02-12T03:04:04.275Z,100439.70
2023-02-12T03:06:47.594Z,100445.92
2023-02-12T03:09:24.837Z,100459.54
2023-02-12T03:11:56.392Z,100472.56
2023-02-12T03:14:31.320Z,100479.55
2023-02-12T03:17:09.656Z,100493.96
2023-02-12T03:20:02.084Z,100495.70
2023-02-12T03:22:32.716Z,100510.30
2023-02-12T03:25:10.081Z,100513.30
2023-02-12T03:27:41.757Z,100521.12
2023-02-12T03:30:11.521Z,100532.21
2023-02-12T03:32:55.786Z,100535.66
2023-02-12T03:35:29.582Z,100544.27
2023-02-12T03:38:14.649Z,100548.09
2023-02-12T03:40:59.356Z,100557.10
2023-02-12T03:43:50.901Z,100569.39
2023-02-12T03:46:33.867Z,100584.27
2023-02-12T03:49:18.241Z,100592.91
2023-02-12T03:51:47.222Z,100593.73
2023-02-12T03:54:18.590Z,100605.75
2023-02-12T03:56:56.650Z,100614.91
2023-02-12T03:59:29.074Z,100620.32
2023-02-12T04:01:59.249Z,100626.27
2023-02-12T04:04:28.559Z,100632.52
2023-02-12T04:06:57.744Z,100641.88
2023-02-12T04:09:27.285Z,100650.45
2023-02-12T04:12:10.090Z,100657.10
2023-02-12T04:14:50.691Z,100663.21
2023-02-12T04:17:54.412Z,100670.10
2023-02-12T04:20:37.535Z,100677.02
2023-02-12T04:23:27.121Z,100687.98
2023-02-12T04:25:59.385Z,100691.58
2023-02-12T04:29:15.880Z,100697.02
2023-02-12T04:31:51.526Z,100699.28
2023-02-12T04:34:44.111Z,100708.94
2023-02-12T04:37:17.956Z,100712.05
2023-02-12T04:39:46.819Z,100724.23
2023-02-12T04:42:15.814Z,100723.06
2023-02-12T04:44:45.901Z,100720.52
2023-02-12T04:47:15.608Z,100719.10
2023-02-12T04:49:44.694Z,100721.36
2023-02-12T04:52:13.555Z,100724.52
2023-02-12T04:54:43.589Z,100733.82
2023-02-12T04:57:13.026Z,100734.89
2023-02-12T04:59:42.133Z,100741.87
2023-02-12T05:02:10.909Z,100746.09
2023-02-12T05:04:40.224Z,100754.38
2023-02-12T05:07:09.309Z,100754.55
2023-02-12T05:09:38.551Z,100760.37
2023-02-12T05:12:08.184Z,100765.33
2023-02-12T05:14:39.262Z,100774.40
2023-02-12T05:17:08.332Z,100780.40
2023-02-12T05:19:37.128Z,100793.65
2023-02-12T05:22:06.362Z,100805.04
2023-02-12T05:24:35.141Z,100816.41
2023-02-12T05:27:03.949Z,100819.04
2023-02-12T05:29:32.862Z,100820.86
2023-02-12T05:32:02.228Z,100828.29
2023-02-12T05:34:31.352Z,100830.93
2023-02-12T05:37:00.360Z,100837.02
2023-02-12T05:39:29.519Z,100835.19
2023-02-12T05:41:58.547Z,100837.48
2023-02-12T05:44:27.419Z,100854.54
2023-02-12T05:46:56.400Z,100854.36
2023-02-12T05:49:25.240Z,100861.24
2023-02-12T05:51:54.271Z,100866.30
2023-02-12T05:54:23.274Z,100861.88
2023-02-12T05:56:52.220Z,100867.80
2023-02-12T05:59:22.414Z,100870.49
2023-02-12T06:01:52.293Z,100880.09
2023-02-12T06:04:24.121Z,100884.23
2023-02-12T06:06:53.308Z,100885.30
2023-02-12T06:09:22.624Z,100891.61
2023-02-12T06:11:54.042Z,100891.63
2023-02-12T06:14:22.906Z,100898.95
2023-02-12T06:16:53.839Z,100899.86
2023-02-12T06:19:22.802Z,100901.49
2023-02-12T06:21:51.606Z,100911.06
2023-02-12T06:24:21.745Z,100919.15
2023-02-12T06:26:52.319Z,100925.59
2023-02-12T06:29:22.378Z,100927.71
2023-02-12T06:31:51.390Z,100930.73
2023-02-12T06:34:20.842Z,100928.32
2023-02-12T06:36:50.031Z,100930.08
2023-02-12T06:39:19.523Z,100933.98
2023-02-12T06:41:48.537Z,100940.27
2023-02-12T06:44:17.432Z,100934.45
2023-02-12T06:46:46.266Z,100942.12
2023-02-12T06:49:16.961Z,100940.85
2023-02-12T06:51:45.916Z,100938.94
2023-02-12T06:54:15.832Z,100948.38
2023-02-12T06:56:44.880Z,100946.27
2023-02-12T06:59:15.783Z,100952.95
2023-02-12T07:01:46.753Z,100949.79
2023-02-12T07:04:16.097Z,100949.23
2023-02-12T07:06:45.140Z,100955.48
2023-02-12T07:09:14.533Z,100966.27
2023-02-12T07:11:43.270Z,100966.44
2023-02-12T07:14:18.000Z,100965.63
2023-02-12T07:16:48.148Z,100968.05
2023-02-12T07:19:18.457Z,100978.95
2023-02-12T07:21:47.551Z,100988.54
2023-02-12T07:24:20.643Z,100986.63
2023-02-12T07:26:52.641Z,100994.64
2023-02-12T07:29:21.981Z,100996.04
2023-02-12T07:31:50.895Z,100999.09
2023-02-12T07:34:20.268Z,100999.23
2023-02-12T07:36:50.353Z,100994.10
2023-02-12T07:39:19.406Z,101000.02
2023-02-12T07:41:48.751Z,101000.51
2023-02-12T07:44:17.808Z,101013.17
2023-02-12T07:46:48.662Z,101013.15
2023-02-12T07:49:22.034Z,101017.66
2023-02-12T07:51:51.179Z,101014.45
2023-02-12T07:54:24.280Z,101016.83
2023-02-12T07:56:53.444Z,101025.01
2023-02-12T07:59:22.814Z,101022.02
2023-02-12T08:01:52.697Z,101025.52
2023-02-12T08:04:23.815Z,101027.88
2023-02-12T08:06:54.726Z,101033.63
2023-02-12T08:09:27.189Z,101043.66
2023-02-12T08:11:56.364Z,101043.55
2023-02-12T08:14:28.200Z,101043.98
2023-02-12T08:16:58.172Z,101056.07
2023-02-12T08:19:27.076Z,101058.42
2023-02-12T08:21:56.438Z,101059.75
2023-02-12T08:24:25.959Z,101049.60
2023-02-12T08:26:55.519Z,101051.67
2023-02-12T08:29:26.649Z,101055.20
2023-02-12T08:31:57.965Z,101051.61
2023-02-12T08:34:31.810Z,101059.03
2023-02-12T08:37:06.474Z,101073.16
2023-02-12T08:39:35.941Z,101070.70
2023-02-12T08:42:05.262Z,101074.38
2023-02-12T08:44:34.998Z,101085.39
2023-02-12T08:47:04.577Z,101085.55
2023-02-12T08:49:34.290Z,101089.41
2023-02-12T08:52:03.718Z,101090.40
2023-02-12T08:54:33.465Z,101108.97
2023-02-12T08:57:03.591Z,101105.55
2023-02-12T08:59:32.960Z,101108.36
2023-02-12T09:02:02.954Z,101108.04
2023-02-12T09:04:32.599Z,101114.88
2023-02-12T09:07:06.342Z,101119.48
2023-02-12T09:09:36.476Z,101113.98
2023-02-12T09:12:09.839Z,101120.27
2023-02-12T09:14:40.113Z,101123.23
2023-02-12T09:17:09.161Z,101116.13
2023-02-12T09:19:38.865Z,101111.64
2023-02-12T09:22:08.460Z,101113.01
2023-02-12T09:24:38.837Z,101113.30
2023-02-12T09:27:07.850Z,101122.02
2023-02-12T09:29:36.926Z,101120.72
2023-02-12T09:32:07.189Z,101123.96
2023-02-12T09:34:36.962Z,101141.69
2023-02-12T09:37:05.967Z,101140.44
2023-02-12T09:39:36.496Z,101138.55
2023-02-12T09:42:21.090Z,101137.45
2023-02-12T09:44:56.186Z,101130.23
2023-02-12T09:47:33.573Z,101119.89
2023-02-12T09:50:12.220Z,101123.50
2023-02-12T09:52:41.464Z,101126.45
2023-02-12T09:55:15.992Z,101130.03
2023-02-12T09:57:45.503Z,101128.80
2023-02-12T10:00:24.228Z,101136.91
2023-02-12T10:02:53.939Z,101125.52
2023-02-12T10:05:35.505Z,101129.01
2023-02-12T10:08:32.811Z,101130.74
2023-02-12T10:11:34.783Z,101121.77
2023-02-12T10:14:44.745Z,101130.63
2023-02-12T10:17:24.440Z,101139.52
2023-02-12T10:20:11.742Z,101134.10
2023-02-12T10:23:03.217Z,101133.77
2023-02-12T10:25:52.931Z,101136.35
2023-02-12T10:28:29.082Z,101137.80
2023-02-12T10:31:19.912Z,101135.84
2023-02-12T10:33:50.174Z,101130.91
2023-02-12T10:36:29.972Z,101137.98
2023-02-12T10:39:02.268Z,101143.09
2023-02-12T10:41:31.594Z,101141.34
2023-02-12T10:44:00.656Z,101143.79
2023-02-12T10:46:31.694Z,101147.06
2023-02-12T10:49:00.827Z,101152.76
2023-02-12T10:52:04.024Z,101149.38
2023-02-12T10:54:35.821Z,101157.73
2023-02-12T10:57:10.449Z,101160.74
2023-02-12T10:59:40.925Z,101158.48
2023-02-12T11:02:59.612Z,101165.46
2023-02-12T11:05:30.251Z,101174.66
2023-02-12T11:07:59.478Z,101177.61
2023-02-12T11:10:34.367Z,101187.23
2023-02-12T11:13:03.553Z,101192.92
2023-02-12T11:15:38.393Z,101193.92
2023-02-12T11:18:08.955Z,101191.98
2023-02-12T11:20:49.639Z,101188.98
2023-02-12T11:23:33.090Z,101188.22
2023-02-12T11:26:07.619Z,101191.95
2023-02-12T11:28:37.215Z,101183.31
2023-02-12T11:31:12.766Z,101181.83
2023-02-12T11:33:41.855Z,101182.52
2023-02-12T11:36:21.989Z,101179.75
2023-02-12T11:38:54.874Z,101182.91
2023-02-12T11:41:37.405Z,101179.83
2023-02-12T11:44:18.455Z,101178.17
2023-02-12T11:46:50.219Z,101183.33
2023-02-12T11:49:28.959Z,101183.67
2023-02-12T11:51:58.316Z,101182.64
2023-02-12T11:54:29.031Z,101187.52
2023-02-12T11:56:59.147Z,101184.42
2023-02-12T11:59:39.154Z,101189.19
2023-02-12T12:02:20.737Z,101195.42
2023-02-12T12:04:50.645Z,101191.35
2023-02-12T12:07:29.069Z,101184.28
2023-02-12T12:10:26.433Z,101186.72
2023-02-12T12:12:57.563Z,101186.48
2023-02-12T12:15:50.104Z,101185.48
2023-02-12T12:18:45.505Z,101185.83
2023-02-12T12:21:31.651Z,101185.02
2023-02-12T12:24:06.437Z,101183.17
2023-02-12T12:26:35.728Z,101190.64
2023-02-12T12:29:17.301Z,101185.70
2023-02-12T12:31:47.904Z,101190.23
2023-02-12T12:34:20.491Z,101190.69
2023-02-12T12:37:05.007Z,101193.67
2023-02-12T12:39:37.373Z,101195.10
2023-02-12T12:42:18.905Z,101194.52
2023-02-12T12:44:54.988Z,101202.23
2023-02-12T12:48:01.865Z,101193.46
2023-02-12T12:50:40.149Z,101197.27
2023-02-12T12:53:30.990Z,101198.77
2023-02-12T12:56:03.929Z,101195.52
2023-02-12T12:58:38.898Z,101197.16
2023-02-12T13:01:22.259Z,101205.05
2023-02-12T13:04:19.577Z,101206.81
2023-02-12T13:07:03.934Z,101207.92
2023-02-12T13:09:40.113Z,101208.07
2023-02-12T13:12:35.261Z,101212.00
2023-02-12T13:15:25.555Z,101218.95
2023-02-12T13:18:01.538Z,101221.42
2023-02-12T13:20:50.527Z,101224.85
2023-02-12T13:23:35.135Z,101230.23
2023-02-12T13:26:31.031Z,101229.21
2023-02-12T13:29:07.893Z,101232.77
2023-02-12T13:31:41.121Z,101234.27
2023-02-12T13:34:13.343Z,101235.21
2023-02-12T13:36:42.850Z,101240.96
2023-02-12T13:39:34.126Z,101240.66
2023-02-12T13:42:25.375Z,101241.66
2023-02-12T13:45:24.443Z,101252.21
2023-02-12T13:48:18.903Z,101254.67
2023-02-12T13:50:58.968Z,101256.95
2023-02-12T13:53:42.317Z,101261.10
2023-02-12T13:56:17.176Z,101265.13
2023-02-12T13:58:51.716Z,101272.23
2023-02-12T14:01:47.895Z,101276.90
2023-02-12T14:04:20.220Z,101285.21
2023-02-12T14:07:07.292Z,101290.52
2023-02-12T14:10:03.380Z,101286.79
2023-02-12T14:12:34.765Z,101302.11
2023-02-12T14:15:11.739Z,101305.43
2023-02-12T14:17:43.430Z,101306.45
2023-02-12T14:20:15.400Z,101306.96
2023-02-12T14:22:48.830Z,101304.80
2023-02-12T14:25:42.595Z,101312.73
2023-02-12T14:28:21.763Z,101312.90
2023-02-12T14:31:19.397Z,101309.30
2023-02-12T14:33:50.759Z,101316.65
2023-02-12T14:36:33.634Z,101319.05
2023-02-12T14:39:25.403Z,101323.04
2023-02-12T14:41:55.555Z,101329.73
2023-02-12T14:44:26.493Z,101339.77
2023-02-12T14:47:13.351Z,101345.10
2023-02-12T14:49:49.538Z,101351.44
2023-02-12T14:52:40.092Z,101351.20
2023-02-12T14:55:26.848Z,101353.30
2023-02-12T14:58:07.172Z,101361.60
2023-02-12T15:00:41.166Z,101360.99
2023-02-12T15:03:14.479Z,101364.50
2023-02-12T15:05:50.866Z,101367.67
2023-02-12T15:08:20.938Z,101372.66
2023-02-12T15:10:53.502Z,101378.38
2023-02-12T15:13:22.632Z,101381.20
2023-02-12T15:15:55.560Z,101383.83
2023-02-12T15:18:29.595Z,101385.59
2023-02-12T15:21:28.339Z,101387.83
2023-02-12T15:24:11.869Z,101390.48
2023-02-12T15:26:42.831Z,101393.66
2023-02-12T15:29:22.610Z,101392.10
2023-02-12T15:31:56.826Z,101397.01
2023-02-12T15:34:29.002Z,101401.75
2023-02-12T15:37:02.191Z,101406.77
2023-02-12T15:39:43.873Z,101415.95
2023-02-12T15:42:56.306Z,101420.45
2023-02-12T15:45:50.390Z,101417.24
2023-02-12T15:48:22.001Z,101416.67
2023-02-12T15:51:01.562Z,101417.68
2023-02-12T15:53:33.718Z,101424.03
2023-02-12T15:56:03.881Z,101425.31
2023-02-12T15:58:50.624Z,101425.76
2023-02-12T16:01:31.998Z,101426.17
2023-02-12T16:04:06.168Z,101428.00
2023-02-12T16:06:37.361Z,101431.69
2023-02-12T16:09:28.162Z,101433.56
2023-02-12T16:11:58.884Z,101433.36
2023-02-12T16:14:52.341Z,101442.08
2023-02-12T16:17:29.949Z,101447.27
2023-02-12T16:20:05.426Z,101450.71
2023-02-12T16:22:43.124Z,101454.80
2023-02-12T16:25:28.430Z,101456.63
2023-02-12T16:28:08.397Z,101458.58
2023-02-12T16:30:43.487Z,101460.76
2023-02-12T16:33:36.331Z,101461.41
2023-02-12T16:36:12.139Z,101460.95
2023-02-12T16:38:49.459Z,101461.41
2023-02-12T16:41:32.784Z,101463.25
2023-02-12T16:44:01.914Z,101462.79
2023-02-12T16:46:35.189Z,101462.90
2023-02-12T16:49:03.980Z,101462.73
2023-02-12T16:51:36.631Z,101470.88
2023-02-12T16:54:05.610Z,101475.33
2023-02-12T16:56:38.999Z,101475.81
2023-02-12T16:59:09.386Z,101473.02
2023-02-12T17:01:38.272Z,101469.69
2023-02-12T17:04:08.584Z,101470.75
2023-02-12T17:06:37.444Z,101475.39
2023-02-12T17:09:07.824Z,101478.43
2023-02-12T17:11:36.832Z,101473.80
2023-02-12T17:14:09.660Z,101482.28
2023-02-12T17:16:38.587Z,101488.65
2023-02-12T17:19:07.427Z,101495.02
2023-02-12T17:21:39.907Z,101497.94
2023-02-12T17:24:26.628Z,101507.77
2023-02-12T17:26:55.773Z,101513.86
2023-02-12T17:29:25.313Z,101516.99
2023-02-12T17:31:54.215Z,101521.89
2023-02-12T17:34:23.492Z,101522.16
2023-02-12T17:36:53.005Z,101520.45
2023-02-12T17:39:21.842Z,101522.96
2023-02-12T17:41:51.923Z,101522.41
2023-02-12T17:44:20.918Z,101523.39
2023-02-12T17:46:49.941Z,101520.77
2023-02-12T17:49:19.143Z,101520.87
2023-02-12T17:51:48.625Z,101521.48
2023-02-12T17:54:19.126Z,101522.17
2023-02-12T17:56:48.155Z,101524.09
2023-02-12T17:59:17.349Z,101520.98
2023-02-12T18:01:46.198Z,101522.47
2023-02-12T18:04:19.547Z,101523.26
2023-02-12T18:06:48.756Z,101527.31
2023-02-12T18:09:17.496Z,101527.33
2023-02-12T18:11:46.726Z,101529.11
2023-02-12T18:14:15.920Z,101534.08
2023-02-12T18:16:49.980Z,101533.52
2023-02-12T18:19:18.970Z,101546.27
2023-02-12T18:21:48.069Z,101545.24
2023-02-12T18:24:17.042Z,101548.28
2023-02-12T18:26:46.119Z,101554.91
2023-02-12T18:29:14.886Z,101553.60
2023-02-12T18:31:43.962Z,101555.56
2023-02-12T18:34:13.048Z,101562.13
2023-02-12T18:36:42.085Z,101559.89
2023-02-12T18:39:13.366Z,101563.38
2023-02-12T18:41:44.216Z,101565.08
2023-02-12T18:44:13.682Z,101569.06
2023-02-12T18:46:45.047Z,101575.27
2023-02-12T18:49:15.266Z,101576.70
2023-02-12T18:51:44.463Z,101581.67
2023-02-12T18:54:17.988Z,101580.23
2023-02-12T18:56:48.508Z,101578.09
2023-02-12T18:59:18.124Z,101580.88
2023-02-12T19:01:47.736Z,101578.27
2023-02-12T19:04:17.579Z,101575.38
2023-02-12T19:06:49.234Z,101576.64
2023-02-12T19:09:20.687Z,101575.48
2023-02-12T19:11:49.996Z,101579.02
2023-02-12T19:14:19.945Z,101577.02
2023-02-12T19:16:50.049Z,101578.33
2023-02-12T19:19:21.371Z,101575.74
2023-02-12T19:21:51.308Z,101574.11
2023-02-12T19:24:20.196Z,101571.98
2023-02-12T19:26:52.164Z,101574.98
2023-02-12T19:29:22.593Z,101576.89
2023-02-12T19:31:51.610Z,101569.88
2023-02-12T19:34:22.085Z,101571.17
2023-02-12T19:36:50.887Z,101562.97
2023-02-12T19:39:22.631Z,101562.23
2023-02-12T19:41:51.489Z,101552.85
2023-02-12T19:44:21.885Z,101545.92
2023-02-12T19:46:51.212Z,101542.24
2023-02-12T19:49:22.053Z,101539.17
2023-02-12T19:51:51.134Z,101539.86
2023-02-12T19:54:21.054Z,101537.20
2023-02-12T19:56:49.854Z,101536.49
2023-02-12T19:59:20.138Z,101534.34
2023-02-12T20:01:49.120Z,101529.00
2023-02-12T20:04:20.769Z,101531.64
2023-02-12T20:06:51.444Z,101532.23
2023-02-12T20:09:21.837Z,101535.86
2023-02-12T20:11:50.617Z,101537.89
2023-02-12T20:14:21.337Z,101543.13
2023-02-12T20:16:51.169Z,101547.14
2023-02-12T20:19:29.368Z,101541.49
2023-02-12T20:21:58.888Z,101536.81
2023-02-12T20:24:30.043Z,101536.89
2023-02-12T20:26:59.692Z,101533.85
2023-02-12T20:29:29.318Z,101533.66
2023-02-12T20:31:58.622Z,101532.98
2023-02-12T20:34:27.617Z,101534.48
2023-02-12T20:36:56.857Z,101537.91
2023-02-12T20:39:25.984Z,101545.55
2023-02-12T20:41:54.939Z,101552.39
2023-02-12T20:44:23.874Z,101558.13
2023-02-12T20:46:56.420Z,101556.30
2023-02-12T20:49:26.886Z,101556.61
2023-02-12T20:51:55.849Z,101557.30
2023-02-12T20:54:26.220Z,101555.87
2023-02-12T20:56:57.070Z,101552.52
2023-02-12T20:59:26.439Z,101551.89
2023-02-12T21:01:55.466Z,101552.11
2023-02-12T21:04:24.608Z,101557.02
2023-02-12T21:06:53.521Z,101555.40
2023-02-12T21:09:22.278Z,101553.12
2023-02-12T21:11:51.106Z,101553.13
2023-02-12T21:14:22.798Z,101554.71
2023-02-12T21:16:53.453Z,101557.75
2023-02-12T21:19:22.950Z,101562.19
2023-02-12T21:21:51.823Z,101560.20
2023-02-12T21:24:25.130Z,101557.35
2023-02-12T21:26:54.786Z,101559.71
2023-02-12T21:29:27.724Z,101563.14
2023-02-12T21:31:57.448Z,101570.30
2023-02-12T21:34:26.483Z,101570.92
2023-02-12T21:36:56.441Z,101570.52
2023-02-12T21:39:28.088Z,101573.45
2023-02-12T21:42:00.438Z,101575.63
2023-02-12T21:44:30.214Z,101574.66
2023-02-12T21:46:59.272Z,101577.38
2023-02-12T21:49:29.057Z,101577.59
2023-02-12T21:52:04.051Z,101574.30
2023-02-12T21:54:33.112Z,101578.63
2023-02-12T21:57:02.136Z,101578.20
2023-02-12T21:59:32.467Z,101575.11
2023-02-12T22:02:02.563Z,101566.41
2023-02-12T22:04:32.668Z,101560.35
2023-02-12T22:07:03.772Z,101562.40
2023-02-12T22:09:35.855Z,101554.34
2023-02-12T22:12:05.526Z,101550.70
2023-02-12T22:14:34.749Z,101554.63
2023-02-12T22:17:04.921Z,101556.11
2023-02-12T22:19:34.025Z,101559.33
2023-02-12T22:22:04.205Z,101565.14
2023-02-12T22:24:33.851Z,101566.59
2023-02-12T22:27:02.622Z,101567.64
2023-02-12T22:29:32.658Z,101569.65
2023-02-12T22:32:01.662Z,101571.35
2023-02-12T22:34:30.640Z,101580.07
2023-02-12T22:36:59.661Z,101581.04
2023-02-12T22:39:30.185Z,101576.29
2023-02-12T22:41:58.970Z,101581.56
2023-02-12T22:44:27.944Z,101580.71
2023-02-12T22:46:56.854Z,101581.02
2023-02-12T22:49:25.763Z,101576.02
2023-02-12T22:51:54.756Z,101572.64
2023-02-12T22:54:23.981Z,101572.64
2023-02-12T22:56:53.125Z,101574.96
2023-02-12T22:59:21.895Z,101577.42
2023-02-12T23:01:51.027Z,101572.11
2023-02-12T23:04:20.377Z,101565.41
2023-02-12T23:06:49.448Z,101560.82
2023-02-12T23:09:21.927Z,101554.94
2023-02-12T23:11:50.700Z,101553.50
2023-02-12T23:14:23.022Z,101553.59
2023-02-12T23:16:51.931Z,101552.23
2023-02-12T23:19:20.737Z,101556.09
2023-02-12T23:21:50.026Z,101558.43
2023-02-12T23:24:18.836Z,101556.23
2023-02-12T23:26:48.195Z,101553.54
2023-02-12T23:29:17.271Z,101549.38
2023-02-12T23:31:46.720Z,101553.10
2023-02-12T23:34:15.853Z,101554.05
2023-02-12T23:36:44.647Z,101557.73
2023-02-12T23:39:14.759Z,101551.30
2023-02-12T23:41:43.551Z,101549.65
2023-02-12T23:44:12.315Z,101544.45
2023-02-12T23:46:41.209Z,101536.30
2023-02-12T23:49:10.237Z,101537.04
2023-02-12T23:51:39.507Z,101530.13
2023-02-12T23:54:08.467Z,101529.52
2023-02-12T23:56:38.719Z,101532.64
2023-02-12T23:59:08.817Z,101536.85
